Soekarno-Hatta International Airport
WIII : now visible

Airfield :











YOU CAN JOIN US ON...

 
LOGIN :

Register | Disclaimer

   EN    FR    IT 

 









Legend :    VFR   Marginal VFR   IFR   Intensive IFR   Very Intensive IFR
Visi :
Ceiling :
>= 8 km
>= 3000ft
5 to 8 km
1000 to 3000 ft
1500m to 5 km
500 to 1000 ft
800 to 1500m
200 to 500 ft
< 800m
< 200 ft
Symbols :   Thunderstorms  Fog  Heavy snow  Heavy precipitations  Wind > 20 kt






- Airport Elevation : 34 ft
- IATA code : CGK


WIII - Soekarno-Hatta International

CURRENT METAR :
  • 190200Z VRB03KT 7000 FEW020 30/24 Q1012 NOSIG

EXPIRED METARs :
  • 190130Z VRB02KT 5000 HZ FEW022 29/24 Q1012 NOSIG
  • 190100Z VRB02KT 5000 HZ FEW022 28/24 Q1012 NOSIG
  • 190030Z 31002KT 2000 BR FEW020 27/24 Q1012 NOSIG
  • 190000Z 32002KT 2000 BR FEW020 26/24 Q1011 NOSIG
  • 182330Z VRB02KT 2000 BR FEW020 26/23 Q1011 NOSIG
  • 182300Z VRB02KT 2500 BR SCT020 26/23 Q1010 NOSIG

TAF TAF WIII
Valid from the 19 at 00:00 until the 20 at 06:00 UTC


182300Z 1900/2006 34010KT 9000 SCT020
BECMG 1915/1917 18003KT 5000 HZ



MET'MAP, your aeronautical weather chart ! - Copyright ORBIFLY December 2007 - Disclaimer

ORBIFLY MET'MAP TEAM :

Programming & Development : Alexandra Zaïnal
Concept & original design : Baudouin d'Aumeries
Assistance for programming : Marc-Olivier Méhu
Technical & hardware support : Manuel Goepfert

Contact : metmap@orbifly.com




SOURCES & CREDITS :

   NOAA       Earth
Advisory